Terminal Aerodrome Forecast
Issued by NWS Riverton, WY

Home | Current Version | Previous Version | Text Only | Print | Product List | Glossary On
Versions: 1 2 3 4 5 6 7 8 9 10 11 12 13
000
FTUS45 KRIW 062331
TAFRIW
TAF
KRIW 062331Z 0700/0724 08006KT P6SM VCSH SCT035 BKN050
     FM070400 10005KT P6SM FEW045 BKN070
     FM071000 VRB04KT P6SM VCFG SCT080
     FM071600 05006KT P6SM SCT080 SCT120
     FM072100 03007KT P6SM VCTS BKN070CB=

USA.gov is the U.S. government's official web portal to all federal, state and local government web resources and services.